Time;durP1;ratioP1;P1;durP2;ratioP2;P2;SDS_P1;SDS_P2;PMS_P1;PMS_P2;Temp;Humidity;BMP_temperature;BMP_pressure;BME280_temperature;BME280_humidity;BME280_pressure;Samples;Min_cycle;Max_cycle;Signal;HPM_P1;HPM_P2
2022/04/16 00:00:52;;;;;;;3.13;2.93;;;12.60;74.50;;;;;;6099949;23;20409;-83
2022/04/16 00:03:19;;;;;;;2.70;2.50;;;12.60;74.50;;;;;;6099578;23;20411;-82
2022/04/16 00:05:46;;;;;;;2.83;2.40;;;12.50;74.80;;;;;;6098884;23;20454;-84
2022/04/16 00:08:12;;;;;;;3.30;2.27;;;12.50;74.90;;;;;;6101330;23;20419;-83
2022/04/16 00:10:40;;;;;;;3.03;2.73;;;12.40;74.90;;;;;;6113204;23;20961;-82
2022/04/16 00:13:07;;;;;;;2.90;2.70;;;12.40;75.10;;;;;;6098788;23;20448;-83
2022/04/16 00:15:36;;;;;;;2.77;2.40;;;12.30;75.40;;;;;;6098234;23;20480;-83
2022/04/16 00:18:03;;;;;;;3.90;3.00;;;12.20;75.80;;;;;;6097163;23;20424;-82
2022/04/16 00:20:31;;;;;;;2.83;2.63;;;12.10;76.20;;;;;;6097322;23;20769;-82
2022/04/16 00:22:58;;;;;;;2.93;2.60;;;12.10;76.50;;;;;;6096647;23;20491;-83
2022/04/16 00:25:25;;;;;;;2.43;2.23;;;12.10;76.70;;;;;;6099395;23;20441;-82
2022/04/16 00:27:54;;;;;;;3.83;3.10;;;12.00;76.60;;;;;;6102776;23;20487;-81
2022/04/16 00:30:21;;;;;;;2.67;2.47;;;12.00;76.90;;;;;;6099260;23;20444;-83
2022/04/16 00:32:51;;;;;;;3.93;2.73;;;11.90;77.20;;;;;;6097378;23;20927;-82
2022/04/16 00:35:20;;;;;;;3.07;2.87;;;11.90;77.60;;;;;;6097987;23;20551;-83
2022/04/16 00:37:47;;;;;;;4.37;3.37;;;11.80;77.70;;;;;;6105308;23;20426;-81
2022/04/16 00:40:14;;;;;;;3.07;2.77;;;11.80;78.10;;;;;;6107575;23;20408;-81
2022/04/16 00:42:44;;;;;;;3.00;2.40;;;11.80;78.10;;;;;;6100941;23;20404;-83
2022/04/16 00:45:11;;;;;;;3.47;3.00;;;11.60;78.10;;;;;;6097936;23;20428;-82
2022/04/16 00:47:38;;;;;;;3.07;2.73;;;11.60;78.20;;;;;;6098139;23;20412;-82
2022/04/16 00:50:08;;;;;;;3.07;2.77;;;11.50;78.50;;;;;;6098319;23;20894;-82
2022/04/16 00:52:35;;;;;;;3.13;2.83;;;11.50;78.90;;;;;;6100318;23;20396;-84
2022/04/16 00:55:02;;;;;;;3.10;2.80;;;11.50;79.10;;;;;;6099339;23;20525;-82
2022/04/16 00:57:28;;;;;;;3.00;2.70;;;11.50;78.70;;;;;;6098320;23;20409;-83
2022/04/16 00:59:55;;;;;;;2.67;2.40;;;11.60;78.60;;;;;;6103550;23;20413;-84
2022/04/16 01:02:22;;;;;;;3.53;2.43;;;11.60;78.60;;;;;;6098160;23;20451;-83
2022/04/16 01:04:48;;;;;;;2.00;1.80;;;11.60;78.50;;;;;;6097172;23;20438;-82
2022/04/16 01:07:22;;;;;;;2.10;1.90;;;11.70;78.40;;;;;;6100611;23;20419;-83
2022/04/16 01:09:49;;;;;;;2.57;2.37;;;11.80;78.00;;;;;;6116691;23;20444;-83
2022/04/16 01:12:16;;;;;;;3.13;2.70;;;11.90;77.60;;;;;;6098382;23;20412;-84
2022/04/16 01:14:45;;;;;;;2.63;2.43;;;11.90;77.20;;;;;;6097301;23;20452;-84
2022/04/16 01:17:12;;;;;;;3.43;2.77;;;11.90;77.20;;;;;;6097371;23;20460;-84
2022/04/16 01:19:40;;;;;;;3.13;2.83;;;11.90;77.00;;;;;;6098644;23;20736;-83
2022/04/16 01:22:07;;;;;;;2.83;2.47;;;11.90;76.80;;;;;;6098091;23;20533;-83
2022/04/16 01:24:37;;;;;;;2.20;1.93;;;11.90;76.90;;;;;;6097936;23;20702;-82
2022/04/16 01:27:04;;;;;;;2.00;1.73;;;11.80;77.20;;;;;;6106623;23;20816;-84
2022/04/16 01:29:31;;;;;;;2.97;2.67;;;11.70;77.40;;;;;;6098450;23;20412;-83
2022/04/16 01:31:59;;;;;;;2.60;2.40;;;11.70;77.30;;;;;;6098575;23;20416;-82
2022/04/16 01:34:25;;;;;;;2.47;2.27;;;11.60;77.50;;;;;;6099200;23;20459;-82
2022/04/16 01:36:53;;;;;;;3.00;2.80;;;11.50;77.90;;;;;;6104960;23;20489;-82
2022/04/16 01:39:19;;;;;;;3.00;2.80;;;11.40;77.80;;;;;;6110310;23;20408;-83
2022/04/16 01:41:48;;;;;;;2.80;2.60;;;11.30;78.20;;;;;;6106879;23;20439;-81
2022/04/16 01:44:14;;;;;;;2.90;2.60;;;11.30;79.10;;;;;;6110835;23;20420;-82
2022/04/16 01:46:41;;;;;;;2.70;2.50;;;11.20;79.10;;;;;;6101518;23;20408;-83
2022/04/16 01:49:10;;;;;;;2.43;2.23;;;11.20;79.30;;;;;;6100764;23;20405;-83
2022/04/16 01:51:36;;;;;;;2.40;2.20;;;11.10;79.60;;;;;;6099181;23;20413;-83
2022/04/16 01:54:03;;;;;;;3.00;2.70;;;11.00;80.00;;;;;;6101241;23;20448;-82
2022/04/16 01:56:30;;;;;;;3.00;2.80;;;11.00;80.30;;;;;;6099630;23;20416;-83
2022/04/16 01:58:58;;;;;;;2.80;2.60;;;11.00;80.40;;;;;;6098915;23;20408;-84
2022/04/16 02:01:25;;;;;;;3.13;2.83;;;11.00;80.50;;;;;;6097760;23;20416;-82
2022/04/16 02:03:51;;;;;;;4.03;3.13;;;10.90;80.70;;;;;;6097165;23;20412;-84
2022/04/16 02:06:18;;;;;;;2.90;2.70;;;10.90;80.60;;;;;;6096948;23;20393;-83
2022/04/16 02:08:45;;;;;;;2.50;2.30;;;10.90;80.70;;;;;;6098451;23;20402;-85
2022/04/16 02:11:12;;;;;;;3.10;2.90;;;10.90;80.60;;;;;;6098018;23;20425;-83
2022/04/16 02:13:38;;;;;;;2.80;2.50;;;10.80;80.90;;;;;;6097740;23;20416;-84
2022/04/16 02:16:07;;;;;;;2.90;2.60;;;10.80;81.10;;;;;;6098039;23;20405;-83
2022/04/16 02:18:34;;;;;;;2.70;2.50;;;10.80;81.40;;;;;;6097566;23;20406;-83
2022/04/16 02:21:01;;;;;;;3.30;3.00;;;10.70;81.50;;;;;;6097534;23;20416;-85
2022/04/16 02:23:27;;;;;;;3.10;2.80;;;10.70;81.60;;;;;;6096770;23;20408;-85
2022/04/16 02:25:54;;;;;;;3.47;3.17;;;10.70;82.00;;;;;;6097731;23;20739;-84
2022/04/16 02:28:21;;;;;;;3.33;3.00;;;10.60;82.00;;;;;;6099115;23;20412;-82
2022/04/16 02:30:49;;;;;;;3.60;3.30;;;10.60;82.40;;;;;;6099453;23;20513;-84
2022/04/16 02:33:17;;;;;;;3.30;3.00;;;10.50;82.80;;;;;;6100113;23;20412;-84
2022/04/16 02:35:44;;;;;;;3.60;3.30;;;10.50;83.20;;;;;;6100075;23;20444;-83
2022/04/16 02:38:10;;;;;;;3.17;2.97;;;10.50;83.20;;;;;;6101376;23;20740;-83
2022/04/16 02:40:37;;;;;;;3.20;2.90;;;10.40;83.40;;;;;;6099511;23;20412;-83
2022/04/16 02:43:04;;;;;;;3.30;2.93;;;10.40;84.00;;;;;;6101263;23;20416;-84
2022/04/16 02:48:16;;;;;;;3.47;3.17;;;10.30;84.30;;;;;;6108115;23;20525;-81
2022/04/16 02:50:44;;;;;;;3.23;2.90;;;10.40;84.70;;;;;;6113144;23;20412;-82
2022/04/16 02:53:11;;;;;;;3.83;3.20;;;10.30;84.70;;;;;;6114591;23;20496;-82
2022/04/16 02:55:38;;;;;;;3.10;2.80;;;10.30;85.00;;;;;;6099068;23;20451;-84
2022/04/16 02:58:05;;;;;;;4.17;3.77;;;10.20;84.80;;;;;;6099271;23;20444;-83
2022/04/16 03:00:31;;;;;;;3.43;3.00;;;10.20;85.10;;;;;;6104775;23;20413;-81
2022/04/16 03:02:58;;;;;;;3.57;3.00;;;10.20;85.50;;;;;;6103229;23;20404;-85
2022/04/16 03:05:26;;;;;;;3.33;3.03;;;10.10;85.70;;;;;;6098681;23;20432;-83
2022/04/16 03:07:53;;;;;;;3.20;2.90;;;10.10;85.80;;;;;;6099065;23;20409;-83
2022/04/16 03:10:19;;;;;;;3.67;3.27;;;10.00;86.10;;;;;;6100171;23;20412;-84
2022/04/16 03:12:48;;;;;;;2.73;2.47;;;9.90;87.50;;;;;;6098945;23;20420;-83
2022/04/16 03:18:00;;;;;;;2.63;2.43;;;9.90;88.10;;;;;;6098901;23;20895;-83
2022/04/16 03:20:29;;;;;;;3.73;3.40;;;9.90;88.40;;;;;;6098417;23;20922;-85
2022/04/16 03:22:56;;;;;;;3.27;2.97;;;9.90;88.70;;;;;;6098241;23;20788;-84
2022/04/16 03:25:23;;;;;;;3.60;3.10;;;9.90;88.90;;;;;;6098809;23;20431;-81
2022/04/16 03:27:50;;;;;;;4.00;3.70;;;9.90;89.40;;;;;;6098792;23;20440;-81
2022/04/16 03:30:17;;;;;;;3.10;2.80;;;9.90;89.50;;;;;;6098554;23;20748;-82
2022/04/16 03:32:46;;;;;;;4.63;3.37;;;9.90;89.40;;;;;;6098137;23;20400;-83
2022/04/16 03:35:13;;;;;;;3.30;3.00;;;9.80;89.50;;;;;;6098652;23;20524;-84
2022/04/16 03:37:41;;;;;;;3.87;3.23;;;9.80;89.50;;;;;;6098616;23;20778;-81
2022/04/16 03:40:09;;;;;;;3.73;2.53;;;9.80;89.80;;;;;;6098701;23;20451;-80
2022/04/16 03:42:44;;;;;;;3.30;3.00;;;9.70;89.70;;;;;;6099948;23;20416;-80
2022/04/16 03:45:15;;;;;;;3.37;3.07;;;9.70;89.90;;;;;;6112772;23;20420;-83
2022/04/16 03:47:42;;;;;;;3.17;2.87;;;9.70;90.00;;;;;;6099567;23;20860;-83
2022/04/16 03:50:10;;;;;;;3.80;3.37;;;9.70;90.30;;;;;;6099947;23;20440;-85
2022/04/16 03:52:41;;;;;;;3.90;3.60;;;9.60;90.40;;;;;;6103928;23;20423;-82
2022/04/16 04:00:40;;;;;;;5.47;3.50;;;9.50;90.90;;;;;;6100518;23;20770;-81
2022/04/16 04:03:06;;;;;;;3.73;3.13;;;9.40;91.10;;;;;;6099906;23;20439;-82
2022/04/16 04:05:33;;;;;;;3.30;3.00;;;9.40;91.40;;;;;;6100711;23;20452;-82
2022/04/16 04:08:01;;;;;;;5.03;4.47;;;9.40;91.70;;;;;;6100945;23;20408;-81
2022/04/16 04:10:28;;;;;;;3.90;3.60;;;9.40;91.80;;;;;;6101221;23;20444;-82
2022/04/16 04:12:55;;;;;;;4.13;3.73;;;9.40;91.90;;;;;;6099131;23;20409;-81
2022/04/16 04:15:23;;;;;;;3.83;3.53;;;9.40;91.90;;;;;;6098061;23;20432;-81
2022/04/16 04:17:50;;;;;;;5.20;4.37;;;9.40;92.00;;;;;;6097970;23;20735;-82
2022/04/16 04:20:17;;;;;;;5.30;4.07;;;9.40;92.30;;;;;;6097075;23;20421;-82
2022/04/16 04:22:44;;;;;;;4.10;3.70;;;9.40;92.50;;;;;;6096493;23;20491;-82
2022/04/16 04:25:11;;;;;;;7.83;3.93;;;9.40;92.50;;;;;;6097135;23;20825;-82
2022/04/16 04:27:38;;;;;;;5.67;3.80;;;9.40;92.60;;;;;;6097364;23;20424;-82
2022/04/16 04:30:06;;;;;;;4.20;3.73;;;9.40;92.80;;;;;;6097467;23;20412;-83
2022/04/16 04:32:33;;;;;;;4.10;3.70;;;9.50;92.70;;;;;;6100241;23;20393;-81
2022/04/16 04:34:59;;;;;;;5.83;4.40;;;9.50;92.80;;;;;;6117577;23;20427;-81
2022/04/16 04:37:26;;;;;;;6.57;4.97;;;9.50;92.80;;;;;;6105708;23;20405;-83
2022/04/16 04:39:53;;;;;;;4.30;3.90;;;9.50;92.80;;;;;;6108972;23;20409;-81
2022/04/16 04:42:25;;;;;;;4.70;3.50;;;9.60;92.60;;;;;;6107362;23;20408;-83
2022/04/16 04:44:52;;;;;;;4.93;4.43;;;9.80;92.40;;;;;;6098023;23;20822;-83
2022/04/16 04:47:18;;;;;;;5.60;4.40;;;9.80;92.30;;;;;;6097744;23;20405;-84
2022/04/16 04:49:45;;;;;;;4.20;3.80;;;9.80;92.30;;;;;;6097943;23;20463;-83
2022/04/16 04:52:20;;;;;;;4.70;4.30;;;9.80;92.30;;;;;;6097586;23;20414;-83
2022/04/16 04:54:46;;;;;;;7.43;4.20;;;9.80;92.10;;;;;;6097828;23;20424;-85
2022/04/16 04:57:13;;;;;;;3.70;3.40;;;9.80;91.90;;;;;;6097842;23;20408;-83
2022/04/16 04:59:44;;;;;;;5.93;3.93;;;9.90;92.00;;;;;;6099221;23;20801;-82
2022/04/16 05:02:10;;;;;;;4.43;4.03;;;10.00;91.20;;;;;;6102631;23;20393;-82
2022/04/16 05:04:37;;;;;;;4.83;4.00;;;10.00;90.90;;;;;;6099343;23;20507;-83
2022/04/16 05:07:06;;;;;;;3.83;3.53;;;10.10;91.00;;;;;;6098286;23;20475;-83
2022/04/16 05:09:33;;;;;;;7.20;4.63;;;10.20;91.20;;;;;;6106757;23;20413;-82
2022/04/16 05:11:59;;;;;;;4.33;3.93;;;10.20;91.20;;;;;;6097399;23;20472;-82
2022/04/16 05:14:26;;;;;;;4.50;4.10;;;10.20;91.00;;;;;;6097839;23;20435;-81
2022/04/16 05:16:58;;;;;;;4.07;3.70;;;10.30;91.00;;;;;;6097747;23;20424;-83
2022/04/16 05:19:25;;;;;;;5.17;3.60;;;10.30;91.00;;;;;;6097611;23;20408;-82
2022/04/16 05:21:51;;;;;;;4.37;3.97;;;10.40;90.90;;;;;;6098055;23;20421;-83
2022/04/16 05:24:18;;;;;;;4.03;3.63;;;10.40;90.60;;;;;;6097672;23;20429;-83
2022/04/16 05:26:45;;;;;;;5.23;4.40;;;10.40;90.50;;;;;;6097041;23;20448;-82
2022/04/16 05:29:11;;;;;;;4.93;4.53;;;10.40;90.50;;;;;;6097597;23;20966;-83
2022/04/16 05:31:38;;;;;;;4.43;4.03;;;10.50;90.60;;;;;;6097982;23;20904;-82
2022/04/16 05:36:51;;;;;;;4.70;3.63;;;10.60;90.50;;;;;;6097342;23;20483;-84
2022/04/16 05:39:18;;;;;;;4.33;3.93;;;10.70;90.30;;;;;;6098137;23;20432;-82
2022/04/16 05:41:45;;;;;;;4.70;3.57;;;10.70;90.10;;;;;;6103096;23;20404;-81
2022/04/16 05:44:12;;;;;;;4.23;3.83;;;10.80;90.00;;;;;;6104214;23;20967;-82
2022/04/16 05:46:40;;;;;;;4.03;3.70;;;10.80;89.90;;;;;;6113338;23;20440;-84
2022/04/16 05:49:08;;;;;;;4.97;3.73;;;10.80;89.70;;;;;;6113769;23;20930;-85
2022/04/16 05:51:34;;;;;;;4.93;4.53;;;10.80;89.30;;;;;;6108824;23;20416;-84
2022/04/16 05:54:03;;;;;;;4.70;4.30;;;10.90;89.20;;;;;;6108684;23;20453;-84
2022/04/16 05:56:31;;;;;;;3.97;3.60;;;10.90;88.90;;;;;;6114086;23;20408;-83
2022/04/16 05:58:58;;;;;;;4.60;4.20;;;10.90;88.50;;;;;;6117406;23;20400;-81
2022/04/16 06:01:24;;;;;;;4.47;4.10;;;10.90;88.20;;;;;;6106566;23;20417;-81
2022/04/16 06:03:51;;;;;;;4.57;4.17;;;11.00;88.10;;;;;;6099189;23;20415;-82
2022/04/16 06:06:19;;;;;;;4.33;3.63;;;10.90;88.00;;;;;;6103631;23;20428;-79
2022/04/16 06:08:46;;;;;;;3.80;3.50;;;10.90;88.20;;;;;;6108630;23;20408;-79
2022/04/16 06:11:12;;;;;;;4.20;3.80;;;11.00;88.40;;;;;;6107438;23;20404;-80
2022/04/16 06:13:39;;;;;;;4.20;3.70;;;11.10;88.00;;;;;;6101031;23;20413;-81
2022/04/16 06:16:08;;;;;;;4.37;3.87;;;11.10;87.80;;;;;;6104574;23;20400;-79
2022/04/16 06:18:35;;;;;;;4.70;4.30;;;11.10;87.50;;;;;;6107073;23;20432;-79
2022/04/16 06:21:02;;;;;;;3.23;2.93;;;11.20;87.50;;;;;;6102827;23;20415;-81
2022/04/16 06:23:31;;;;;;;5.17;4.43;;;11.20;88.10;;;;;;6099237;23;20496;-81
2022/04/16 06:25:58;;;;;;;4.63;4.10;;;11.20;86.80;;;;;;6096943;23;20452;-79
2022/04/16 06:28:25;;;;;;;4.50;4.10;;;11.20;86.70;;;;;;6097423;23;20427;-81
2022/04/16 06:30:51;;;;;;;5.00;4.40;;;11.30;86.70;;;;;;6099287;23;20902;-79
2022/04/16 06:33:18;;;;;;;4.87;4.47;;;11.30;86.50;;;;;;6097992;23;20755;-79
2022/04/16 06:35:55;;;;;;;5.20;4.60;;;11.40;86.30;;;;;;6098050;23;20432;-79
2022/04/16 06:38:21;;;;;;;5.60;4.53;;;11.40;86.30;;;;;;6096500;23;20954;-78
2022/04/16 06:40:49;;;;;;;6.33;4.40;;;11.40;85.70;;;;;;6097311;23;20396;-80
2022/04/16 06:43:16;;;;;;;5.53;5.03;;;11.50;85.90;;;;;;6107487;23;20412;-79
2022/04/16 06:45:43;;;;;;;5.80;4.50;;;11.40;85.80;;;;;;6103312;23;20451;-81
2022/04/16 06:48:10;;;;;;;4.93;4.43;;;11.50;85.80;;;;;;6098278;23;20416;-83
2022/04/16 06:50:36;;;;;;;6.13;4.77;;;11.50;85.70;;;;;;6099565;23;20410;-81
2022/04/16 06:53:03;;;;;;;4.90;4.50;;;11.50;85.50;;;;;;6095795;23;20745;-79
2022/04/16 06:55:30;;;;;;;3.97;3.63;;;11.60;85.50;;;;;;6095208;23;20433;-79
2022/04/16 06:57:58;;;;;;;6.30;5.70;;;11.60;85.40;;;;;;6096840;23;20413;-80
2022/04/16 07:00:25;;;;;;;6.33;4.90;;;11.50;85.60;;;;;;6096457;23;20409;-79
2022/04/16 07:02:51;;;;;;;5.83;5.20;;;11.60;86.00;;;;;;6095579;23;20397;-81
2022/04/16 07:05:18;;;;;;;4.67;4.27;;;11.70;85.70;;;;;;6096132;23;20448;-79
2022/04/16 07:07:46;;;;;;;4.50;4.10;;;11.80;85.10;;;;;;6095582;23;20464;-80
2022/04/16 07:10:12;;;;;;;4.50;4.10;;;11.90;84.90;;;;;;6095736;23;20409;-79
2022/04/16 07:12:40;;;;;;;5.20;4.40;;;12.00;84.90;;;;;;6096365;23;20416;-78
2022/04/16 07:15:09;;;;;;;4.80;4.40;;;12.00;84.70;;;;;;6098533;23;20421;-80
2022/04/16 07:17:36;;;;;;;6.07;5.53;;;11.90;84.50;;;;;;6096925;23;20753;-79
2022/04/16 07:20:03;;;;;;;4.97;4.47;;;11.80;84.60;;;;;;6097318;23;20389;-80
2022/04/16 07:22:30;;;;;;;5.47;5.00;;;11.80;85.00;;;;;;6097284;23;20471;-80
2022/04/16 07:24:56;;;;;;;6.90;4.90;;;11.80;85.10;;;;;;6100952;23;20456;-78
2022/04/16 07:27:23;;;;;;;6.80;5.17;;;11.90;85.40;;;;;;6100389;23;20497;-80
2022/04/16 07:29:52;;;;;;;6.10;5.60;;;11.80;85.20;;;;;;6114875;23;20388;-78
2022/04/16 07:32:20;;;;;;;5.60;5.10;;;11.80;85.20;;;;;;6098590;23;20417;-80
2022/04/16 07:34:49;;;;;;;5.70;5.13;;;12.00;85.20;;;;;;6098959;23;20840;-80
2022/04/16 07:37:17;;;;;;;5.57;4.97;;;12.10;84.80;;;;;;6099025;23;21000;-79
2022/04/16 07:39:43;;;;;;;5.37;4.47;;;12.20;84.50;;;;;;6098459;23;20423;-81
2022/04/16 07:42:10;;;;;;;5.73;5.23;;;12.30;83.80;;;;;;6103363;23;20460;-84
2022/04/16 07:44:37;;;;;;;6.57;5.97;;;12.30;83.60;;;;;;6130834;23;20392;-83
2022/04/16 07:47:04;;;;;;;6.57;4.90;;;12.20;83.60;;;;;;6128997;23;20469;-84
2022/04/16 07:49:32;;;;;;;6.50;5.90;;;12.40;84.20;;;;;;6136268;23;20419;-82
2022/04/16 07:51:59;;;;;;;7.10;6.23;;;12.40;83.80;;;;;;6147022;23;20421;-83
2022/04/16 07:54:26;;;;;;;6.50;5.90;;;12.50;84.00;;;;;;6110635;23;20500;-83
2022/04/16 07:56:52;;;;;;;7.83;5.73;;;12.60;83.30;;;;;;6114980;23;20414;-83
2022/04/16 07:59:19;;;;;;;7.73;6.23;;;12.80;82.80;;;;;;6122756;23;20389;-83
2022/04/16 08:01:46;;;;;;;7.50;6.73;;;12.70;82.20;;;;;;6103234;23;20409;-84
2022/04/16 08:04:12;;;;;;;7.53;6.83;;;12.80;82.70;;;;;;6106412;23;20405;-84
2022/04/16 08:06:45;;;;;;;7.97;6.63;;;12.90;81.90;;;;;;6116886;23;20462;-84
2022/04/16 08:09:14;;;;;;;6.87;6.17;;;13.00;82.00;;;;;;6118930;23;20434;-84
2022/04/16 08:11:41;;;;;;;7.10;6.40;;;13.10;81.60;;;;;;6114652;23;20381;-84
2022/04/16 08:14:07;;;;;;;7.43;6.63;;;13.10;81.50;;;;;;6113900;23;20417;-83
2022/04/16 08:16:34;;;;;;;10.43;9.17;;;13.10;81.60;;;;;;6098622;23;20447;-83
2022/04/16 08:19:03;;;;;;;9.67;7.33;;;13.20;81.40;;;;;;6101242;23;20409;-84
2022/04/16 08:21:32;;;;;;;8.67;6.63;;;13.30;81.20;;;;;;6114132;23;20465;-84
2022/04/16 08:24:12;;;;;;;9.40;8.43;;;13.40;80.70;;;;;;6113751;23;20404;-84
2022/04/16 08:26:39;;;;;;;7.30;6.60;;;13.40;80.30;;;;;;6099861;23;20424;-84
2022/04/16 08:29:07;;;;;;;7.27;6.57;;;13.30;80.40;;;;;;6099338;23;20427;-85
2022/04/16 08:31:34;;;;;;;7.77;7.00;;;13.20;80.90;;;;;;6104112;23;20405;-86
2022/04/16 08:34:01;;;;;;;7.73;6.60;;;13.10;80.60;;;;;;6124012;23;20408;-84
2022/04/16 08:36:30;;;;;;;8.10;7.40;;;13.10;81.10;;;;;;6124132;23;20468;-83
2022/04/16 08:38:56;;;;;;;6.27;5.70;;;13.10;80.90;;;;;;6124378;23;20405;-83
2022/04/16 08:41:26;;;;;;;8.50;7.70;;;12.90;80.70;;;;;;6121728;23;20458;-84
2022/04/16 08:43:53;;;;;;;9.53;7.23;;;12.90;81.40;;;;;;6106242;23;20438;-83
2022/04/16 08:46:20;;;;;;;9.60;7.20;;;13.10;80.90;;;;;;6108131;23;20456;-86
2022/04/16 08:48:53;;;;;;;8.27;7.47;;;13.20;80.70;;;;;;6121832;23;20417;-86
2022/04/16 08:51:21;;;;;;;7.67;6.97;;;13.50;80.00;;;;;;6120268;23;20402;-84
2022/04/16 08:53:48;;;;;;;8.33;6.80;;;13.70;79.20;;;;;;6106463;23;20436;-86
2022/04/16 08:56:15;;;;;;;8.00;7.30;;;13.60;78.40;;;;;;6108470;23;20443;-86
2022/04/16 08:58:44;;;;;;;7.97;7.20;;;13.50;78.90;;;;;;6113881;23;20440;-85
2022/04/16 09:01:10;;;;;;;8.57;7.60;;;13.60;79.20;;;;;;6109726;23;20442;-87
2022/04/16 09:03:40;;;;;;;10.03;9.13;;;13.70;79.00;;;;;;6122637;23;20424;-88
2022/04/16 09:06:08;;;;;;;9.57;8.57;;;13.60;79.10;;;;;;6124864;23;20448;-86
2022/04/16 09:08:36;;;;;;;9.10;7.83;;;13.50;79.90;;;;;;6123997;23;20415;-83
2022/04/16 09:11:15;;;;;;;11.47;10.27;;;13.50;80.10;;;;;;6120157;23;20401;-87
2022/04/16 09:13:52;;;;;;;10.87;9.00;;;13.40;80.00;;;;;;6121685;23;20422;-88
2022/04/16 09:16:20;;;;;;;10.33;9.23;;;13.40;80.00;;;;;;6116723;23;20388;-85
2022/04/16 09:18:50;;;;;;;11.00;9.63;;;13.30;79.80;;;;;;6098992;23;20516;-88
2022/04/16 09:21:17;;;;;;;10.40;9.40;;;13.20;80.60;;;;;;6101135;23;20409;-88
2022/04/16 09:23:52;;;;;;;11.70;9.93;;;13.20;80.90;;;;;;6099136;23;20433;-88
2022/04/16 09:26:26;;;;;;;11.87;8.90;;;13.10;81.00;;;;;;6097962;23;20772;-88
2022/04/16 09:28:55;;;;;;;10.20;9.20;;;13.00;81.80;;;;;;6098261;23;20409;-89
2022/04/16 09:31:28;;;;;;;14.80;10.73;;;13.10;81.70;;;;;;6100248;23;20438;-88
2022/04/16 09:33:55;;;;;;;10.67;9.57;;;13.10;81.40;;;;;;6098846;23;20987;-89
2022/04/16 09:36:25;;;;;;;9.60;8.60;;;12.90;81.40;;;;;;6106004;23;20405;-88
2022/04/16 09:39:01;;;;;;;9.27;8.33;;;12.70;81.50;;;;;;6115206;23;20395;-88
2022/04/16 09:41:33;;;;;;;10.53;9.47;;;12.70;82.40;;;;;;6118325;23;20393;-88
2022/04/16 09:44:02;;;;;;;11.30;9.40;;;12.70;81.60;;;;;;6112469;23;20378;-89
2022/04/16 09:46:31;;;;;;;9.60;8.70;;;12.80;82.10;;;;;;6104019;23;20520;-89
2022/04/16 09:49:03;;;;;;;9.87;8.50;;;13.00;82.00;;;;;;6113317;23;20403;-89
2022/04/16 09:51:35;;;;;;;8.50;7.60;;;13.20;80.80;;;;;;6119433;23;20385;-87
2022/04/16 09:54:05;;;;;;;9.50;8.60;;;13.30;79.90;;;;;;6105003;23;20418;-88
2022/04/16 09:56:34;;;;;;;9.30;8.33;;;13.50;78.60;;;;;;6099302;23;20413;-89
2022/04/16 09:59:04;;;;;;;9.47;7.97;;;13.50;78.00;;;;;;6096997;23;20452;-89
2022/04/16 10:01:33;;;;;;;9.03;7.93;;;13.90;77.30;;;;;;6098283;23;20417;-88
2022/04/16 10:04:00;;;;;;;9.97;9.00;;;14.40;76.10;;;;;;6116072;23;20939;-89
2022/04/16 10:06:28;;;;;;;9.90;8.20;;;14.90;74.80;;;;;;6121841;23;20437;-88
2022/04/16 10:09:00;;;;;;;7.90;7.20;;;15.40;72.00;;;;;;6099096;23;20741;-89
2022/04/16 10:14:34;;;;;;;9.30;8.30;;;15.20;68.40;;;;;;6114335;23;20424;-88
2022/04/16 10:17:09;;;;;;;11.63;9.10;;;14.80;70.30;;;;;;6114987;23;20459;-88
2022/04/16 10:19:40;;;;;;;9.37;8.37;;;14.70;70.80;;;;;;6109676;23;20444;-89
2022/04/16 10:22:06;;;;;;;9.73;8.73;;;15.00;70.70;;;;;;6099602;23;20428;-89
2022/04/16 10:24:35;;;;;;;8.90;8.00;;;15.10;69.50;;;;;;6102227;23;20511;-89
2022/04/16 10:27:08;;;;;;;11.00;8.93;;;15.10;69.70;;;;;;6098796;23;20451;-88
2022/04/16 10:29:38;;;;;;;13.20;8.53;;;15.30;69.20;;;;;;6105960;23;20412;-89
2022/04/16 10:32:16;;;;;;;10.17;8.63;;;15.40;68.40;;;;;;6107558;23;20425;-89
2022/04/16 10:34:43;;;;;;;9.57;8.57;;;15.40;68.10;;;;;;6100823;23;20397;-89
2022/04/16 10:37:21;;;;;;;8.27;7.47;;;15.50;67.70;;;;;;6098782;23;20404;-90
2022/04/16 10:39:48;;;;;;;8.40;7.60;;;15.30;66.90;;;;;;6097513;23;20408;-89
2022/04/16 10:42:15;;;;;;;7.97;7.23;;;15.00;67.20;;;;;;6105533;23;20456;-90
2022/04/16 10:44:48;;;;;;;7.73;7.00;;;15.10;66.60;;;;;;6106158;23;20412;-90
2022/04/16 10:47:16;;;;;;;9.07;8.10;;;15.30;66.80;;;;;;6098323;23;20451;-90
2022/04/16 10:49:43;;;;;;;7.47;6.50;;;15.60;66.00;;;;;;6111760;23;20399;-90
2022/04/16 10:52:19;;;;;;;8.17;7.13;;;15.40;63.40;;;;;;6124113;23;20491;-90
2022/04/16 10:54:48;;;;;;;8.13;7.10;;;15.30;64.70;;;;;;6112672;23;20427;-89
2022/04/16 10:57:21;;;;;;;7.93;6.80;;;15.20;65.60;;;;;;6099180;23;20863;-90
2022/04/16 10:59:50;;;;;;;7.57;6.33;;;15.00;65.50;;;;;;6099626;23;20391;-89
2022/04/16 11:02:23;;;;;;;7.97;6.23;;;15.00;64.60;;;;;;6099145;23;20432;-89
2022/04/16 11:05:00;;;;;;;6.43;5.83;;;15.10;63.50;;;;;;6114975;23;20464;-90
2022/04/16 11:07:28;;;;;;;4.77;4.37;;;15.10;63.60;;;;;;6122398;23;20452;-89
2022/04/16 11:09:55;;;;;;;6.87;5.10;;;15.50;62.40;;;;;;6116030;23;20414;-89
2022/04/16 11:12:23;;;;;;;5.77;5.20;;;15.60;60.30;;;;;;6113743;23;20500;-88
2022/04/16 11:14:52;;;;;;;7.03;5.90;;;15.50;60.10;;;;;;6119667;23;20413;-89
2022/04/16 11:17:19;;;;;;;6.50;5.80;;;15.50;61.00;;;;;;6119051;23;20502;-89
2022/04/16 11:19:48;;;;;;;9.10;6.03;;;15.50;61.30;;;;;;6099360;23;20450;-90
2022/04/16 11:22:15;;;;;;;7.47;6.77;;;15.30;62.10;;;;;;6099520;23;20454;-88
2022/04/16 11:24:44;;;;;;;6.87;6.20;;;15.40;63.30;;;;;;6116719;23;20397;-89
2022/04/16 11:35:26;;;;;;;5.97;5.13;;;15.80;58.40;;;;;;6102724;23;20892;-88
2022/04/16 11:38:00;;;;;;;6.93;6.33;;;15.90;58.50;;;;;;6101098;23;20420;-88
2022/04/16 11:40:27;;;;;;;6.03;5.43;;;16.10;58.40;;;;;;6106934;23;20885;-89
2022/04/16 11:42:54;;;;;;;7.23;6.60;;;16.20;59.00;;;;;;6108687;23;20471;-88
2022/04/16 11:45:22;;;;;;;8.20;6.40;;;16.40;58.90;;;;;;6123271;23;20405;-88
2022/04/16 11:47:50;;;;;;;6.53;5.80;;;16.80;58.40;;;;;;6107396;23;20433;-88
2022/04/16 11:50:19;;;;;;;7.83;6.90;;;16.90;57.60;;;;;;6116183;23;20454;-89
2022/04/16 11:52:50;;;;;;;6.90;6.17;;;16.90;56.50;;;;;;6087203;23;20443;-88
2022/04/16 11:55:19;;;;;;;6.27;5.70;;;17.20;56.10;;;;;;6106429;23;20403;-88
2022/04/16 11:57:47;;;;;;;6.53;5.50;;;17.30;55.00;;;;;;6113001;23;20483;-87
2022/04/16 12:00:15;;;;;;;6.40;5.50;;;17.30;54.60;;;;;;6109006;23;20413;-87
2022/04/16 12:02:43;;;;;;;5.33;4.83;;;19.40;52.60;;;;;;6111566;23;20433;-87
2022/04/16 12:05:12;;;;;;;6.30;5.73;;;21.00;48.20;;;;;;6110661;23;20423;-88
2022/04/16 12:07:43;;;;;;;6.00;5.50;;;21.90;47.30;;;;;;6108868;23;20411;-88
2022/04/16 12:10:12;;;;;;;5.90;5.40;;;22.90;44.90;;;;;;6113876;23;20419;-88
2022/04/16 12:12:49;;;;;;;6.97;5.70;;;21.70;45.20;;;;;;6112294;23;20429;-88
2022/04/16 12:15:23;;;;;;;5.97;5.30;;;23.10;44.40;;;;;;6112446;23;20377;-87
2022/04/16 12:17:52;;;;;;;7.03;5.13;;;23.90;42.70;;;;;;6121300;23;20445;-87
2022/04/16 12:20:21;;;;;;;6.00;5.30;;;25.00;41.40;;;;;;6122689;23;20399;-87
2022/04/16 12:22:50;;;;;;;6.60;6.10;;;24.90;39.50;;;;;;6123859;23;20498;-87
2022/04/16 12:25:18;;;;;;;5.13;4.73;;;23.20;41.40;;;;;;6124263;23;20422;-88
2022/04/16 12:27:46;;;;;;;6.13;5.60;;;24.80;41.20;;;;;;6124358;23;20411;-88
2022/04/16 12:30:14;;;;;;;6.10;5.60;;;25.00;39.30;;;;;;6123462;23;20416;-89
2022/04/16 12:32:44;;;;;;;6.50;5.90;;;23.30;40.40;;;;;;6117235;23;20417;-90
2022/04/16 12:35:12;;;;;;;7.53;5.97;;;23.60;40.90;;;;;;6119155;23;20412;-88
2022/04/16 12:37:39;;;;;;;6.03;5.43;;;22.70;41.40;;;;;;6122764;23;20436;-88
2022/04/16 12:40:09;;;;;;;5.60;5.10;;;23.30;41.10;;;;;;6117023;23;20410;-88
2022/04/16 12:42:36;;;;;;;5.77;5.27;;;22.10;41.70;;;;;;6100490;23;20438;-88
2022/04/16 12:45:03;;;;;;;5.40;4.60;;;21.10;42.10;;;;;;6100658;23;20415;-87
2022/04/16 12:47:30;;;;;;;6.00;5.50;;;21.90;42.20;;;;;;6103797;23;20416;-89
2022/04/16 12:49:57;;;;;;;5.43;4.83;;;23.10;41.60;;;;;;6101054;23;20418;-89
2022/04/16 12:52:25;;;;;;;7.73;7.10;;;25.20;38.90;;;;;;6105178;23;20989;-89
2022/04/16 12:54:52;;;;;;;6.13;5.57;;;25.70;37.70;;;;;;6121812;23;20464;-89
2022/04/16 12:57:19;;;;;;;5.93;5.47;;;27.00;35.50;;;;;;6107508;23;20446;-88
2022/04/16 12:59:46;;;;;;;5.33;4.80;;;27.60;34.20;;;;;;6099739;23;20416;-87
2022/04/16 13:02:13;;;;;;;4.53;4.10;;;27.20;33.30;;;;;;6100164;23;20432;-88
2022/04/16 13:04:41;;;;;;;4.80;4.30;;;27.70;33.90;;;;;;6100479;23;20409;-88
2022/04/16 13:07:07;;;;;;;5.57;5.07;;;29.30;31.60;;;;;;6117926;23;20399;-88
2022/04/16 13:09:35;;;;;;;5.30;4.90;;;29.40;30.90;;;;;;6117886;23;20825;-88
2022/04/16 13:12:09;;;;;;;4.83;4.43;;;29.00;31.50;;;;;;6100218;23;20435;-88
2022/04/16 13:14:35;;;;;;;4.53;4.13;;;28.40;31.30;;;;;;6099514;23;20405;-88
2022/04/16 13:17:04;;;;;;;5.20;4.80;;;27.20;31.80;;;;;;6099557;23;20416;-88